sensor_id;sensor_type;location;lat;lon;timestamp;P1;durP1;ratioP1;P2;durP2;ratioP2
16179;SDS011;8196;49.428;10.906;2024-03-23T00:55:02;6.63;;;6.00;;
16179;SDS011;8196;49.428;10.906;2024-03-23T00:57:28;6.05;;;5.05;;
16179;SDS011;8196;49.428;10.906;2024-03-23T00:59:57;5.45;;;4.70;;
16179;SDS011;8196;49.428;10.906;2024-03-23T01:02:23;6.13;;;4.80;;
16179;SDS011;8196;49.428;10.906;2024-03-23T01:04:50;5.30;;;4.80;;
16179;SDS011;8196;49.428;10.906;2024-03-23T01:07:16;5.80;;;5.20;;
16179;SDS011;8196;49.428;10.906;2024-03-23T01:09:42;4.97;;;4.57;;
16179;SDS011;8196;49.428;10.906;2024-03-23T01:12:09;5.40;;;4.85;;
16179;SDS011;8196;49.428;10.906;2024-03-23T01:14:35;4.97;;;4.47;;
16179;SDS011;8196;49.428;10.906;2024-03-23T01:17:02;8.88;;;6.80;;
16179;SDS011;8196;49.428;10.906;2024-03-23T01:19:28;7.60;;;6.70;;
16179;SDS011;8196;49.428;10.906;2024-03-23T01:21:54;7.50;;;6.70;;
16179;SDS011;8196;49.428;10.906;2024-03-23T01:24:21;7.00;;;6.30;;
16179;SDS011;8196;49.428;10.906;2024-03-23T01:26:47;7.05;;;5.80;;
16179;SDS011;8196;49.428;10.906;2024-03-23T01:29:13;5.18;;;4.68;;
16179;SDS011;8196;49.428;10.906;2024-03-23T01:31:40;5.43;;;4.88;;
16179;SDS011;8196;49.428;10.906;2024-03-23T01:34:06;5.18;;;4.68;;
16179;SDS011;8196;49.428;10.906;2024-03-23T01:36:33;5.90;;;5.30;;
16179;SDS011;8196;49.428;10.906;2024-03-23T01:38:59;5.68;;;5.07;;
16179;SDS011;8196;49.428;10.906;2024-03-23T01:41:25;7.50;;;6.70;;
16179;SDS011;8196;49.428;10.906;2024-03-23T01:43:52;6.80;;;6.10;;
16179;SDS011;8196;49.428;10.906;2024-03-23T01:46:21;7.78;;;6.50;;
16179;SDS011;8196;49.428;10.906;2024-03-23T01:48:48;6.07;;;5.47;;
16179;SDS011;8196;49.428;10.906;2024-03-23T01:51:14;6.13;;;5.53;;
16179;SDS011;8196;49.428;10.906;2024-03-23T01:53:41;6.18;;;5.50;;
16179;SDS011;8196;49.428;10.906;2024-03-23T01:56:07;6.40;;;5.78;;
16179;SDS011;8196;49.428;10.906;2024-03-23T01:58:33;7.05;;;6.32;;
16179;SDS011;8196;49.428;10.906;2024-03-23T02:01:00;6.10;;;5.50;;
16179;SDS011;8196;49.428;10.906;2024-03-23T02:03:26;5.93;;;5.13;;
16179;SDS011;8196;49.428;10.906;2024-03-23T02:05:53;5.53;;;4.85;;
16179;SDS011;8196;49.428;10.906;2024-03-23T02:08:21;7.53;;;6.03;;
16179;SDS011;8196;49.428;10.906;2024-03-23T02:10:48;6.20;;;5.60;;
16179;SDS011;8196;49.428;10.906;2024-03-23T02:13:15;7.78;;;6.85;;
16179;SDS011;8196;49.428;10.906;2024-03-23T02:15:42;6.88;;;6.18;;
16179;SDS011;8196;49.428;10.906;2024-03-23T02:18:10;6.13;;;5.47;;
16179;SDS011;8196;49.428;10.906;2024-03-23T02:20:37;5.22;;;4.72;;
16179;SDS011;8196;49.428;10.906;2024-03-23T02:23:04;7.20;;;6.50;;
16179;SDS011;8196;49.428;10.906;2024-03-23T02:25:31;6.18;;;5.57;;
16179;SDS011;8196;49.428;10.906;2024-03-23T02:27:57;8.43;;;6.63;;
16179;SDS011;8196;49.428;10.906;2024-03-23T02:30:25;7.68;;;6.38;;
16179;SDS011;8196;49.428;10.906;2024-03-23T02:32:51;6.10;;;5.50;;
16179;SDS011;8196;49.428;10.906;2024-03-23T02:35:17;6.87;;;6.17;;
16179;SDS011;8196;49.428;10.906;2024-03-23T02:37:45;6.45;;;5.85;;
16179;SDS011;8196;49.428;10.906;2024-03-23T02:40:13;8.18;;;6.50;;
16179;SDS011;8196;49.428;10.906;2024-03-23T02:42:40;6.85;;;6.15;;
16179;SDS011;8196;49.428;10.906;2024-03-23T02:45:06;5.55;;;5.05;;
16179;SDS011;8196;49.428;10.906;2024-03-23T02:47:33;6.05;;;4.80;;
16179;SDS011;8196;49.428;10.906;2024-03-23T02:49:59;5.18;;;4.68;;
16179;SDS011;8196;49.428;10.906;2024-03-23T02:52:25;5.15;;;4.65;;
16179;SDS011;8196;49.428;10.906;2024-03-23T02:54:52;5.18;;;4.68;;
16179;SDS011;8196;49.428;10.906;2024-03-23T02:57:18;5.70;;;4.97;;
16179;SDS011;8196;49.428;10.906;2024-03-23T02:59:44;5.28;;;4.78;;
16179;SDS011;8196;49.428;10.906;2024-03-23T03:02:11;5.18;;;4.43;;
16179;SDS011;8196;49.428;10.906;2024-03-23T03:04:37;7.50;;;5.97;;
16179;SDS011;8196;49.428;10.906;2024-03-23T03:07:04;5.32;;;4.82;;
16179;SDS011;8196;49.428;10.906;2024-03-23T03:09:30;6.20;;;5.60;;
16179;SDS011;8196;49.428;10.906;2024-03-23T03:11:57;5.82;;;5.05;;
16179;SDS011;8196;49.428;10.906;2024-03-23T03:14:23;4.85;;;4.35;;
16179;SDS011;8196;49.428;10.906;2024-03-23T03:16:49;4.32;;;3.92;;
16179;SDS011;8196;49.428;10.906;2024-03-23T03:19:16;5.22;;;4.47;;
16179;SDS011;8196;49.428;10.906;2024-03-23T03:21:42;5.18;;;4.70;;
16179;SDS011;8196;49.428;10.906;2024-03-23T03:24:08;5.10;;;4.60;;
16179;SDS011;8196;49.428;10.906;2024-03-23T03:26:35;6.03;;;5.43;;
16179;SDS011;8196;49.428;10.906;2024-03-23T03:29:02;4.87;;;4.40;;
16179;SDS011;8196;49.428;10.906;2024-03-23T03:31:28;6.07;;;5.30;;
16179;SDS011;8196;49.428;10.906;2024-03-23T03:33:54;7.20;;;6.50;;
16179;SDS011;8196;49.428;10.906;2024-03-23T03:36:20;8.73;;;7.38;;
16179;SDS011;8196;49.428;10.906;2024-03-23T03:38:47;9.35;;;7.95;;
16179;SDS011;8196;49.428;10.906;2024-03-23T03:41:13;6.20;;;5.60;;
16179;SDS011;8196;49.428;10.906;2024-03-23T03:43:39;6.30;;;5.70;;
16179;SDS011;8196;49.428;10.906;2024-03-23T03:46:06;7.70;;;6.83;;
16179;SDS011;8196;49.428;10.906;2024-03-23T03:48:33;7.73;;;6.93;;
16179;SDS011;8196;49.428;10.906;2024-03-23T03:51:00;8.50;;;7.07;;
16179;SDS011;8196;49.428;10.906;2024-03-23T03:53:26;6.22;;;5.43;;
16179;SDS011;8196;49.428;10.906;2024-03-23T03:55:52;5.35;;;4.85;;
16179;SDS011;8196;49.428;10.906;2024-03-23T03:58:19;5.10;;;4.60;;
16179;SDS011;8196;49.428;10.906;2024-03-23T04:00:45;5.40;;;4.65;;
16179;SDS011;8196;49.428;10.906;2024-03-23T04:03:11;5.30;;;4.80;;
16179;SDS011;8196;49.428;10.906;2024-03-23T04:05:38;7.18;;;6.47;;
16179;SDS011;8196;49.428;10.906;2024-03-23T04:08:05;8.85;;;6.90;;
16179;SDS011;8196;49.428;10.906;2024-03-23T04:10:31;7.45;;;6.55;;
16179;SDS011;8196;49.428;10.906;2024-03-23T04:12:58;6.65;;;5.45;;
16179;SDS011;8196;49.428;10.906;2024-03-23T04:15:24;7.68;;;6.85;;
16179;SDS011;8196;49.428;10.906;2024-03-23T04:17:50;7.70;;;6.83;;
16179;SDS011;8196;49.428;10.906;2024-03-23T04:20:17;8.13;;;6.80;;
16179;SDS011;8196;49.428;10.906;2024-03-23T04:22:43;8.13;;;7.07;;
16179;SDS011;8196;49.428;10.906;2024-03-23T04:25:10;12.23;;;8.95;;
16179;SDS011;8196;49.428;10.906;2024-03-23T04:27:36;8.90;;;8.00;;
16179;SDS011;8196;49.428;10.906;2024-03-23T04:30:03;9.18;;;7.80;;
16179;SDS011;8196;49.428;10.906;2024-03-23T04:32:35;8.20;;;7.30;;
16179;SDS011;8196;49.428;10.906;2024-03-23T04:35:02;9.05;;;7.65;;
16179;SDS011;8196;49.428;10.906;2024-03-23T04:37:32;8.65;;;7.13;;
16179;SDS011;8196;49.428;10.906;2024-03-23T04:39:59;6.40;;;5.80;;
16179;SDS011;8196;49.428;10.906;2024-03-23T04:42:27;8.68;;;7.32;;
16179;SDS011;8196;49.428;10.906;2024-03-23T04:44:53;7.30;;;6.15;;
16179;SDS011;8196;49.428;10.906;2024-03-23T04:47:20;7.00;;;5.85;;
16179;SDS011;8196;49.428;10.906;2024-03-23T04:49:46;5.40;;;4.90;;
16179;SDS011;8196;49.428;10.906;2024-03-23T04:52:12;5.07;;;4.57;;
16179;SDS011;8196;49.428;10.906;2024-03-23T04:54:39;7.03;;;6.28;;
16179;SDS011;8196;49.428;10.906;2024-03-23T04:57:06;8.32;;;6.35;;
16179;SDS011;8196;49.428;10.906;2024-03-23T04:59:32;5.85;;;5.18;;
16179;SDS011;8196;49.428;10.906;2024-03-23T05:01:59;5.35;;;4.85;;
16179;SDS011;8196;49.428;10.906;2024-03-23T05:04:26;5.57;;;4.95;;
16179;SDS011;8196;49.428;10.906;2024-03-23T05:06:52;4.90;;;4.45;;
16179;SDS011;8196;49.428;10.906;2024-03-23T05:09:18;6.47;;;5.40;;
16179;SDS011;8196;49.428;10.906;2024-03-23T05:11:45;5.22;;;4.72;;
16179;SDS011;8196;49.428;10.906;2024-03-23T05:14:14;4.75;;;4.20;;
16179;SDS011;8196;49.428;10.906;2024-03-23T05:16:41;4.20;;;3.80;;
16179;SDS011;8196;49.428;10.906;2024-03-23T05:19:07;5.53;;;5.03;;
16179;SDS011;8196;49.428;10.906;2024-03-23T05:21:34;5.57;;;4.90;;
16179;SDS011;8196;49.428;10.906;2024-03-23T05:24:00;4.95;;;4.25;;
16179;SDS011;8196;49.428;10.906;2024-03-23T05:26:28;4.95;;;4.45;;
16179;SDS011;8196;49.428;10.906;2024-03-23T05:28:54;6.68;;;4.60;;
16179;SDS011;8196;49.428;10.906;2024-03-23T05:31:29;5.80;;;4.60;;
16179;SDS011;8196;49.428;10.906;2024-03-23T05:33:55;6.57;;;4.80;;
16179;SDS011;8196;49.428;10.906;2024-03-23T05:36:22;5.20;;;4.63;;
16179;SDS011;8196;49.428;10.906;2024-03-23T05:38:49;4.03;;;3.63;;
16179;SDS011;8196;49.428;10.906;2024-03-23T05:41:16;4.32;;;3.92;;
16179;SDS011;8196;49.428;10.906;2024-03-23T05:43:42;3.35;;;3.05;;
16179;SDS011;8196;49.428;10.906;2024-03-23T05:46:08;4.00;;;2.88;;
16179;SDS011;8196;49.428;10.906;2024-03-23T05:48:35;4.03;;;3.30;;
16179;SDS011;8196;49.428;10.906;2024-03-23T05:51:01;4.60;;;3.67;;
16179;SDS011;8196;49.428;10.906;2024-03-23T05:53:28;4.23;;;3.77;;
16179;SDS011;8196;49.428;10.906;2024-03-23T05:56:03;4.35;;;3.30;;
16179;SDS011;8196;49.428;10.906;2024-03-23T05:58:29;3.78;;;3.22;;
16179;SDS011;8196;49.428;10.906;2024-03-23T06:00:57;4.13;;;3.72;;
16179;SDS011;8196;49.428;10.906;2024-03-23T06:03:24;5.07;;;3.70;;
16179;SDS011;8196;49.428;10.906;2024-03-23T06:05:51;3.90;;;3.50;;
16179;SDS011;8196;49.428;10.906;2024-03-23T06:08:18;5.15;;;4.50;;
16179;SDS011;8196;49.428;10.906;2024-03-23T06:10:45;5.47;;;4.60;;
16179;SDS011;8196;49.428;10.906;2024-03-23T06:13:12;5.60;;;4.50;;
16179;SDS011;8196;49.428;10.906;2024-03-23T06:15:38;6.10;;;4.35;;
16179;SDS011;8196;49.428;10.906;2024-03-23T06:18:05;4.88;;;4.40;;
16179;SDS011;8196;49.428;10.906;2024-03-23T06:20:33;5.95;;;5.10;;
16179;SDS011;8196;49.428;10.906;2024-03-23T06:23:00;7.90;;;5.80;;
16179;SDS011;8196;49.428;10.906;2024-03-23T06:25:27;7.32;;;6.60;;
16179;SDS011;8196;49.428;10.906;2024-03-23T06:27:53;7.82;;;6.95;;
16179;SDS011;8196;49.428;10.906;2024-03-23T06:30:20;7.93;;;6.63;;
16179;SDS011;8196;49.428;10.906;2024-03-23T06:32:46;9.30;;;7.28;;
16179;SDS011;8196;49.428;10.906;2024-03-23T06:35:12;9.63;;;8.20;;
16179;SDS011;8196;49.428;10.906;2024-03-23T06:37:39;10.43;;;7.88;;
16179;SDS011;8196;49.428;10.906;2024-03-23T06:40:06;10.50;;;8.50;;
16179;SDS011;8196;49.428;10.906;2024-03-23T06:42:35;10.60;;;8.63;;
16179;SDS011;8196;49.428;10.906;2024-03-23T06:45:02;9.32;;;8.18;;
16179;SDS011;8196;49.428;10.906;2024-03-23T06:47:30;10.18;;;8.70;;
16179;SDS011;8196;49.428;10.906;2024-03-23T06:49:57;10.70;;;8.43;;
16179;SDS011;8196;49.428;10.906;2024-03-23T06:52:23;12.57;;;8.80;;
16179;SDS011;8196;49.428;10.906;2024-03-23T06:54:50;10.77;;;8.60;;
16179;SDS011;8196;49.428;10.906;2024-03-23T06:57:16;10.30;;;8.00;;
16179;SDS011;8196;49.428;10.906;2024-03-23T06:59:42;10.00;;;8.30;;
16179;SDS011;8196;49.428;10.906;2024-03-23T07:02:08;11.47;;;8.20;;
16179;SDS011;8196;49.428;10.906;2024-03-23T07:04:35;9.82;;;8.38;;
16179;SDS011;8196;49.428;10.906;2024-03-23T07:07:04;9.98;;;8.10;;
16179;SDS011;8196;49.428;10.906;2024-03-23T07:09:30;10.88;;;7.15;;
16179;SDS011;8196;49.428;10.906;2024-03-23T07:11:57;8.13;;;7.32;;
16179;SDS011;8196;49.428;10.906;2024-03-23T07:14:25;8.25;;;6.22;;
16179;SDS011;8196;49.428;10.906;2024-03-23T07:16:53;7.47;;;6.68;;
16179;SDS011;8196;49.428;10.906;2024-03-23T07:19:19;7.82;;;6.20;;
16179;SDS011;8196;49.428;10.906;2024-03-23T07:21:46;6.63;;;5.32;;
16179;SDS011;8196;49.428;10.906;2024-03-23T07:24:13;7.43;;;5.35;;
16179;SDS011;8196;49.428;10.906;2024-03-23T07:26:40;6.53;;;5.55;;
16179;SDS011;8196;49.428;10.906;2024-03-23T07:29:07;6.95;;;5.82;;
16179;SDS011;8196;49.428;10.906;2024-03-23T07:31:33;5.60;;;4.93;;
16179;SDS011;8196;49.428;10.906;2024-03-23T07:33:59;7.35;;;5.45;;
16179;SDS011;8196;49.428;10.906;2024-03-23T07:36:26;6.50;;;5.40;;
16179;SDS011;8196;49.428;10.906;2024-03-23T07:38:52;6.82;;;5.60;;
16179;SDS011;8196;49.428;10.906;2024-03-23T07:41:19;8.50;;;5.50;;
16179;SDS011;8196;49.428;10.906;2024-03-23T07:43:46;6.67;;;5.47;;
16179;SDS011;8196;49.428;10.906;2024-03-23T07:46:12;6.68;;;5.30;;
16179;SDS011;8196;49.428;10.906;2024-03-23T07:48:39;7.70;;;5.90;;
16179;SDS011;8196;49.428;10.906;2024-03-23T07:51:09;7.93;;;6.07;;
16179;SDS011;8196;49.428;10.906;2024-03-23T07:53:38;7.65;;;5.78;;
16179;SDS011;8196;49.428;10.906;2024-03-23T07:56:05;8.63;;;5.78;;
16179;SDS011;8196;49.428;10.906;2024-03-23T07:58:32;7.57;;;5.78;;
16179;SDS011;8196;49.428;10.906;2024-03-23T08:01:07;7.30;;;5.97;;
16179;SDS011;8196;49.428;10.906;2024-03-23T08:03:34;6.78;;;5.15;;
16179;SDS011;8196;49.428;10.906;2024-03-23T08:06:16;6.75;;;5.50;;
16179;SDS011;8196;49.428;10.906;2024-03-23T08:08:44;5.60;;;4.80;;
16179;SDS011;8196;49.428;10.906;2024-03-23T08:11:10;8.02;;;5.78;;
16179;SDS011;8196;49.428;10.906;2024-03-23T08:13:38;6.22;;;5.13;;
16179;SDS011;8196;49.428;10.906;2024-03-23T08:16:05;4.72;;;3.72;;
16179;SDS011;8196;49.428;10.906;2024-03-23T08:18:31;4.65;;;3.70;;
16179;SDS011;8196;49.428;10.906;2024-03-23T08:20:58;4.57;;;3.97;;
16179;SDS011;8196;49.428;10.906;2024-03-23T08:23:25;4.15;;;3.28;;
16179;SDS011;8196;49.428;10.906;2024-03-23T08:25:52;3.93;;;3.43;;
16179;SDS011;8196;49.428;10.906;2024-03-23T08:28:18;3.97;;;3.25;;
16179;SDS011;8196;49.428;10.906;2024-03-23T08:30:45;4.03;;;3.45;;
16179;SDS011;8196;49.428;10.906;2024-03-23T08:33:11;3.58;;;3.20;;
16179;SDS011;8196;49.428;10.906;2024-03-23T08:35:38;3.75;;;3.35;;
16179;SDS011;8196;49.428;10.906;2024-03-23T08:38:04;3.05;;;2.60;;
16179;SDS011;8196;49.428;10.906;2024-03-23T08:40:31;2.70;;;2.50;;
16179;SDS011;8196;49.428;10.906;2024-03-23T08:42:57;2.55;;;2.35;;
16179;SDS011;8196;49.428;10.906;2024-03-23T08:45:24;2.35;;;2.15;;
16179;SDS011;8196;49.428;10.906;2024-03-23T08:47:51;2.23;;;2.10;;
16179;SDS011;8196;49.428;10.906;2024-03-23T08:50:18;2.30;;;2.00;;
16179;SDS011;8196;49.428;10.906;2024-03-23T08:52:44;2.10;;;1.90;;
16179;SDS011;8196;49.428;10.906;2024-03-23T08:55:10;1.88;;;1.77;;
16179;SDS011;8196;49.428;10.906;2024-03-23T08:57:37;1.73;;;1.63;;
16179;SDS011;8196;49.428;10.906;2024-03-23T09:00:03;1.77;;;1.63;;
16179;SDS011;8196;49.428;10.906;2024-03-23T09:02:31;1.92;;;1.73;;
16179;SDS011;8196;49.428;10.906;2024-03-23T09:04:57;1.55;;;1.45;;
16179;SDS011;8196;49.428;10.906;2024-03-23T09:07:23;1.55;;;1.45;;
16179;SDS011;8196;49.428;10.906;2024-03-23T09:09:50;1.70;;;1.60;;
16179;SDS011;8196;49.428;10.906;2024-03-23T09:12:16;1.63;;;1.52;;
16179;SDS011;8196;49.428;10.906;2024-03-23T09:14:42;1.23;;;1.13;;
16179;SDS011;8196;49.428;10.906;2024-03-23T09:17:08;2.25;;;1.40;;
16179;SDS011;8196;49.428;10.906;2024-03-23T09:19:36;1.30;;;1.20;;
16179;SDS011;8196;49.428;10.906;2024-03-23T09:22:02;1.52;;;1.05;;
16179;SDS011;8196;49.428;10.906;2024-03-23T09:24:28;1.20;;;1.10;;
16179;SDS011;8196;49.428;10.906;2024-03-23T09:26:54;0.80;;;0.80;;
16179;SDS011;8196;49.428;10.906;2024-03-23T09:29:21;0.80;;;0.80;;
16179;SDS011;8196;49.428;10.906;2024-03-23T09:31:47;0.98;;;0.93;;
16179;SDS011;8196;49.428;10.906;2024-03-23T09:34:14;0.90;;;0.63;;
16179;SDS011;8196;49.428;10.906;2024-03-23T09:36:40;0.63;;;0.63;;
16179;SDS011;8196;49.428;10.906;2024-03-23T09:39:07;0.50;;;0.50;;
16179;SDS011;8196;49.428;10.906;2024-03-23T09:41:35;0.50;;;0.50;;
16179;SDS011;8196;49.428;10.906;2024-03-23T09:44:03;0.68;;;0.68;;
16179;SDS011;8196;49.428;10.906;2024-03-23T09:46:31;0.50;;;0.50;;
16179;SDS011;8196;49.428;10.906;2024-03-23T09:48:59;0.50;;;0.50;;
16179;SDS011;8196;49.428;10.906;2024-03-23T09:51:26;0.50;;;0.50;;
16179;SDS011;8196;49.428;10.906;2024-03-23T09:53:53;0.40;;;0.40;;
16179;SDS011;8196;49.428;10.906;2024-03-23T09:56:19;0.50;;;0.50;;
16179;SDS011;8196;49.428;10.906;2024-03-23T09:58:45;0.50;;;0.50;;
16179;SDS011;8196;49.428;10.906;2024-03-23T10:01:12;0.70;;;0.70;;
16179;SDS011;8196;49.428;10.906;2024-03-23T10:03:42;0.65;;;0.65;;
16179;SDS011;8196;49.428;10.906;2024-03-23T10:06:08;1.48;;;0.63;;
16179;SDS011;8196;49.428;10.906;2024-03-23T10:08:34;0.50;;;0.50;;
16179;SDS011;8196;49.428;10.906;2024-03-23T10:11:17;0.50;;;0.50;;
16179;SDS011;8196;49.428;10.906;2024-03-23T10:13:44;0.47;;;0.47;;
16179;SDS011;8196;49.428;10.906;2024-03-23T10:16:12;0.60;;;0.60;;
16179;SDS011;8196;49.428;10.906;2024-03-23T10:18:39;0.60;;;0.60;;
16179;SDS011;8196;49.428;10.906;2024-03-23T10:23:32;0.68;;;0.60;;
16179;SDS011;8196;49.428;10.906;2024-03-23T10:29:02;0.80;;;0.80;;
16179;SDS011;8196;49.428;10.906;2024-03-23T10:31:33;0.80;;;0.75;;
16179;SDS011;8196;49.428;10.906;2024-03-23T10:34:02;0.95;;;0.90;;
16179;SDS011;8196;49.428;10.906;2024-03-23T10:36:29;1.00;;;0.90;;
16179;SDS011;8196;49.428;10.906;2024-03-23T10:38:56;1.10;;;1.00;;
16179;SDS011;8196;49.428;10.906;2024-03-23T10:41:26;1.17;;;1.00;;
16179;SDS011;8196;49.428;10.906;2024-03-23T10:43:54;1.00;;;0.90;;
16179;SDS011;8196;49.428;10.906;2024-03-23T10:46:21;1.58;;;1.00;;
16179;SDS011;8196;49.428;10.906;2024-03-23T10:48:48;1.30;;;1.08;;
16179;SDS011;8196;49.428;10.906;2024-03-23T10:51:14;1.10;;;1.00;;
16179;SDS011;8196;49.428;10.906;2024-03-23T10:53:41;1.60;;;1.17;;
16179;SDS011;8196;49.428;10.906;2024-03-23T10:56:09;1.77;;;1.10;;
16179;SDS011;8196;49.428;10.906;2024-03-23T10:58:38;1.63;;;1.30;;
16179;SDS011;8196;49.428;10.906;2024-03-23T11:01:05;1.67;;;1.38;;
16179;SDS011;8196;49.428;10.906;2024-03-23T11:05:58;1.73;;;1.38;;
16179;SDS011;8196;49.428;10.906;2024-03-23T11:08:30;2.60;;;1.60;;
16179;SDS011;8196;49.428;10.906;2024-03-23T11:13:43;3.28;;;1.80;;
16179;SDS011;8196;49.428;10.906;2024-03-23T11:16:13;3.40;;;1.85;;
16179;SDS011;8196;49.428;10.906;2024-03-23T11:18:40;2.22;;;1.60;;
16179;SDS011;8196;49.428;10.906;2024-03-23T11:21:07;3.43;;;1.80;;
16179;SDS011;8196;49.428;10.906;2024-03-23T11:23:34;2.85;;;1.70;;
16179;SDS011;8196;49.428;10.906;2024-03-23T11:26:00;2.72;;;1.50;;
16179;SDS011;8196;49.428;10.906;2024-03-23T11:28:26;2.53;;;1.60;;
16179;SDS011;8196;49.428;10.906;2024-03-23T11:30:53;2.67;;;1.70;;
16179;SDS011;8196;49.428;10.906;2024-03-23T11:33:19;1.98;;;1.65;;
16179;SDS011;8196;49.428;10.906;2024-03-23T11:35:46;2.03;;;1.60;;
16179;SDS011;8196;49.428;10.906;2024-03-23T11:40:40;2.70;;;1.83;;
16179;SDS011;8196;49.428;10.906;2024-03-23T11:43:07;3.50;;;1.65;;
16179;SDS011;8196;49.428;10.906;2024-03-23T11:45:35;2.17;;;1.80;;
16179;SDS011;8196;49.428;10.906;2024-03-23T11:48:04;1.90;;;1.63;;
16179;SDS011;8196;49.428;10.906;2024-03-23T11:50:30;2.22;;;1.60;;
16179;SDS011;8196;49.428;10.906;2024-03-23T11:58:13;3.15;;;1.73;;
16179;SDS011;8196;49.428;10.906;2024-03-23T12:00:39;3.90;;;1.67;;
16179;SDS011;8196;49.428;10.906;2024-03-23T12:03:06;2.58;;;1.88;;
16179;SDS011;8196;49.428;10.906;2024-03-23T12:05:33;2.50;;;1.60;;
16179;SDS011;8196;49.428;10.906;2024-03-23T12:08:15;2.10;;;1.65;;
16179;SDS011;8196;49.428;10.906;2024-03-23T12:10:44;3.67;;;1.90;;
16179;SDS011;8196;49.428;10.906;2024-03-23T12:13:11;3.03;;;1.70;;
16179;SDS011;8196;49.428;10.906;2024-03-23T12:15:37;2.90;;;1.77;;
16179;SDS011;8196;49.428;10.906;2024-03-23T12:18:07;2.30;;;1.85;;
16179;SDS011;8196;49.428;10.906;2024-03-23T12:20:34;2.88;;;1.67;;
16179;SDS011;8196;49.428;10.906;2024-03-23T12:23:16;2.78;;;1.77;;
16179;SDS011;8196;49.428;10.906;2024-03-23T12:25:42;2.70;;;1.83;;
16179;SDS011;8196;49.428;10.906;2024-03-23T12:28:08;2.42;;;1.70;;
16179;SDS011;8196;49.428;10.906;2024-03-23T12:30:35;2.78;;;1.67;;
16179;SDS011;8196;49.428;10.906;2024-03-23T12:33:02;2.30;;;1.55;;
16179;SDS011;8196;49.428;10.906;2024-03-23T12:35:28;3.97;;;2.15;;
16179;SDS011;8196;49.428;10.906;2024-03-23T12:37:55;4.80;;;2.25;;
16179;SDS011;8196;49.428;10.906;2024-03-23T12:40:23;3.25;;;1.95;;
16179;SDS011;8196;49.428;10.906;2024-03-23T12:42:49;3.88;;;2.00;;
16179;SDS011;8196;49.428;10.906;2024-03-23T12:45:18;2.50;;;1.90;;
16179;SDS011;8196;49.428;10.906;2024-03-23T12:47:45;4.53;;;1.80;;
16179;SDS011;8196;49.428;10.906;2024-03-23T12:50:11;5.25;;;1.80;;
16179;SDS011;8196;49.428;10.906;2024-03-23T12:52:37;3.73;;;1.90;;
16179;SDS011;8196;49.428;10.906;2024-03-23T12:55:04;3.13;;;2.10;;
16179;SDS011;8196;49.428;10.906;2024-03-23T12:57:31;4.47;;;1.90;;
16179;SDS011;8196;49.428;10.906;2024-03-23T12:59:57;3.80;;;1.92;;
16179;SDS011;8196;49.428;10.906;2024-03-23T13:02:24;4.20;;;2.28;;
16179;SDS011;8196;49.428;10.906;2024-03-23T13:04:50;3.55;;;2.08;;
16179;SDS011;8196;49.428;10.906;2024-03-23T13:07:17;4.75;;;2.17;;
16179;SDS011;8196;49.428;10.906;2024-03-23T13:09:44;4.32;;;1.98;;
16179;SDS011;8196;49.428;10.906;2024-03-23T13:12:10;3.58;;;2.05;;
16179;SDS011;8196;49.428;10.906;2024-03-23T13:14:37;3.30;;;1.85;;
16179;SDS011;8196;49.428;10.906;2024-03-23T13:17:04;3.25;;;1.73;;
16179;SDS011;8196;49.428;10.906;2024-03-23T13:19:31;2.97;;;2.23;;
16179;SDS011;8196;49.428;10.906;2024-03-23T13:21:58;3.38;;;1.88;;
16179;SDS011;8196;49.428;10.906;2024-03-23T13:24:26;4.47;;;2.40;;
16179;SDS011;8196;49.428;10.906;2024-03-23T13:26:55;4.63;;;2.03;;
16179;SDS011;8196;49.428;10.906;2024-03-23T13:29:22;3.75;;;3.40;;
16179;SDS011;8196;49.428;10.906;2024-03-23T13:31:49;6.07;;;3.70;;
16179;SDS011;8196;49.428;10.906;2024-03-23T13:34:16;4.63;;;2.33;;
16179;SDS011;8196;49.428;10.906;2024-03-23T13:36:43;4.80;;;2.10;;
16179;SDS011;8196;49.428;10.906;2024-03-23T13:39:10;5.07;;;2.28;;
16179;SDS011;8196;49.428;10.906;2024-03-23T13:41:37;3.25;;;1.90;;
16179;SDS011;8196;49.428;10.906;2024-03-23T13:44:04;3.67;;;2.15;;
16179;SDS011;8196;49.428;10.906;2024-03-23T13:46:31;3.60;;;1.73;;
16179;SDS011;8196;49.428;10.906;2024-03-23T13:48:57;6.78;;;2.00;;
16179;SDS011;8196;49.428;10.906;2024-03-23T13:51:24;4.63;;;1.92;;
16179;SDS011;8196;49.428;10.906;2024-03-23T13:53:53;3.42;;;1.90;;
16179;SDS011;8196;49.428;10.906;2024-03-23T13:56:20;3.35;;;1.80;;
16179;SDS011;8196;49.428;10.906;2024-03-23T13:58:46;4.47;;;2.10;;
16179;SDS011;8196;49.428;10.906;2024-03-23T14:01:14;3.97;;;1.90;;
16179;SDS011;8196;49.428;10.906;2024-03-23T14:03:41;3.27;;;1.60;;
16179;SDS011;8196;49.428;10.906;2024-03-23T14:06:07;2.33;;;1.37;;
16179;SDS011;8196;49.428;10.906;2024-03-23T14:08:35;4.27;;;1.80;;
16179;SDS011;8196;49.428;10.906;2024-03-23T14:11:05;3.20;;;1.60;;
16179;SDS011;8196;49.428;10.906;2024-03-23T14:13:32;4.47;;;1.65;;
16179;SDS011;8196;49.428;10.906;2024-03-23T14:15:58;4.00;;;1.60;;
16179;SDS011;8196;49.428;10.906;2024-03-23T14:18:25;2.90;;;1.55;;
16179;SDS011;8196;49.428;10.906;2024-03-23T14:20:51;3.97;;;1.80;;
16179;SDS011;8196;49.428;10.906;2024-03-23T14:23:18;3.63;;;1.83;;
16179;SDS011;8196;49.428;10.906;2024-03-23T14:25:45;5.60;;;2.10;;
16179;SDS011;8196;49.428;10.906;2024-03-23T14:28:11;3.80;;;1.95;;
16179;SDS011;8196;49.428;10.906;2024-03-23T14:30:40;3.65;;;1.92;;
16179;SDS011;8196;49.428;10.906;2024-03-23T14:33:07;5.13;;;1.50;;
16179;SDS011;8196;49.428;10.906;2024-03-23T14:35:33;3.70;;;1.73;;
16179;SDS011;8196;49.428;10.906;2024-03-23T14:37:59;3.50;;;1.87;;
16179;SDS011;8196;49.428;10.906;2024-03-23T14:40:26;2.88;;;1.52;;
16179;SDS011;8196;49.428;10.906;2024-03-23T14:45:19;6.22;;;1.98;;
16179;SDS011;8196;49.428;10.906;2024-03-23T14:47:45;4.05;;;1.50;;
16179;SDS011;8196;49.428;10.906;2024-03-23T14:50:12;5.00;;;1.92;;
16179;SDS011;8196;49.428;10.906;2024-03-23T14:52:44;5.18;;;1.77;;
16179;SDS011;8196;49.428;10.906;2024-03-23T14:55:12;5.32;;;2.00;;
16179;SDS011;8196;49.428;10.906;2024-03-23T14:57:38;3.30;;;1.75;;
16179;SDS011;8196;49.428;10.906;2024-03-23T15:00:06;3.72;;;2.13;;
16179;SDS011;8196;49.428;10.906;2024-03-23T15:02:33;5.18;;;2.38;;
16179;SDS011;8196;49.428;10.906;2024-03-23T15:05:00;5.78;;;2.47;;
16179;SDS011;8196;49.428;10.906;2024-03-23T15:07:26;3.80;;;2.38;;
16179;SDS011;8196;49.428;10.906;2024-03-23T15:09:53;5.20;;;2.53;;
16179;SDS011;8196;49.428;10.906;2024-03-23T15:12:21;3.67;;;2.17;;
16179;SDS011;8196;49.428;10.906;2024-03-23T15:14:47;4.35;;;2.50;;
16179;SDS011;8196;49.428;10.906;2024-03-23T15:17:13;4.53;;;2.50;;
16179;SDS011;8196;49.428;10.906;2024-03-23T15:19:40;3.45;;;2.47;;
16179;SDS011;8196;49.428;10.906;2024-03-23T15:22:08;2.75;;;1.83;;
16179;SDS011;8196;49.428;10.906;2024-03-23T15:24:35;2.13;;;1.50;;
16179;SDS011;8196;49.428;10.906;2024-03-23T15:27:02;3.17;;;1.70;;
16179;SDS011;8196;49.428;10.906;2024-03-23T15:29:30;2.13;;;1.70;;
16179;SDS011;8196;49.428;10.906;2024-03-23T15:31:56;3.60;;;1.88;;
16179;SDS011;8196;49.428;10.906;2024-03-23T15:34:22;3.03;;;1.70;;
16179;SDS011;8196;49.428;10.906;2024-03-23T15:36:48;3.90;;;1.67;;
16179;SDS011;8196;49.428;10.906;2024-03-23T15:39:16;3.17;;;1.60;;
16179;SDS011;8196;49.428;10.906;2024-03-23T15:41:44;2.90;;;1.67;;
16179;SDS011;8196;49.428;10.906;2024-03-23T15:44:11;2.47;;;1.70;;
16179;SDS011;8196;49.428;10.906;2024-03-23T15:46:37;2.88;;;1.73;;
16179;SDS011;8196;49.428;10.906;2024-03-23T15:49:04;3.30;;;1.70;;
16179;SDS011;8196;49.428;10.906;2024-03-23T15:51:31;5.60;;;1.90;;
16179;SDS011;8196;49.428;10.906;2024-03-23T15:54:00;2.78;;;1.60;;
16179;SDS011;8196;49.428;10.906;2024-03-23T15:56:28;2.47;;;1.67;;
16179;SDS011;8196;49.428;10.906;2024-03-23T15:58:54;3.10;;;1.58;;
16179;SDS011;8196;49.428;10.906;2024-03-23T16:01:21;2.00;;;1.40;;